createdAt,value
2023-01-03T00:02:00.946Z,11.74
2023-01-03T00:04:27.763Z,11.78
2023-01-03T00:06:54.443Z,11.81
2023-01-03T00:09:23.433Z,11.86
2023-01-03T00:12:09.745Z,11.86
2023-01-03T00:14:38.966Z,11.88
2023-01-03T00:17:07.637Z,11.83
2023-01-03T00:19:37.054Z,11.78
2023-01-03T00:22:04.051Z,11.73
2023-01-03T00:24:31.075Z,11.62
2023-01-03T00:27:00.750Z,11.54
2023-01-03T00:29:27.529Z,11.48
2023-01-03T00:31:54.300Z,11.40
2023-01-03T00:34:21.281Z,11.30
2023-01-03T00:36:48.354Z,11.26
2023-01-03T00:39:14.976Z,11.17
2023-01-03T00:41:41.961Z,11.09
2023-01-03T00:44:08.677Z,11.00
2023-01-03T00:46:36.068Z,10.95
2023-01-03T00:49:03.809Z,10.97
2023-01-03T00:51:32.032Z,10.95
2023-01-03T00:53:59.296Z,10.95
2023-01-03T00:56:27.699Z,10.93
2023-01-03T00:58:54.911Z,10.99
2023-01-03T01:01:23.785Z,11.04
2023-01-03T01:03:52.429Z,11.09
2023-01-03T01:06:21.020Z,11.13
2023-01-03T01:08:51.129Z,11.16
2023-01-03T01:11:17.841Z,11.17
2023-01-03T01:13:45.363Z,11.16
2023-01-03T01:16:13.927Z,11.08
2023-01-03T01:18:41.236Z,10.97
2023-01-03T01:21:08.732Z,10.97
2023-01-03T01:23:35.914Z,10.90
2023-01-03T01:26:03.648Z,10.90
2023-01-03T01:28:33.050Z,10.96
2023-01-03T01:31:03.734Z,11.00
2023-01-03T01:33:31.682Z,10.99
2023-01-03T01:35:58.170Z,10.97
2023-01-03T01:38:24.933Z,10.94
2023-01-03T01:40:51.482Z,10.87
2023-01-03T01:43:38.276Z,10.81
2023-01-03T01:46:11.425Z,10.74
2023-01-03T01:48:38.582Z,10.73
2023-01-03T01:51:05.321Z,10.73
2023-01-03T01:53:36.763Z,10.74
2023-01-03T01:56:08.514Z,10.68
2023-01-03T01:58:36.631Z,10.64
2023-01-03T02:01:09.960Z,10.60
2023-01-03T02:03:36.911Z,10.54
2023-01-03T02:06:05.208Z,10.49
2023-01-03T02:08:31.695Z,10.49
2023-01-03T02:11:04.102Z,10.43
2023-01-03T02:13:48.982Z,10.42
2023-01-03T02:16:15.527Z,10.37
2023-01-03T02:18:46.788Z,10.36
2023-01-03T02:21:25.636Z,10.34
2023-01-03T02:24:10.937Z,10.33
2023-01-03T02:26:40.396Z,10.32
2023-01-03T02:29:12.816Z,10.32
2023-01-03T02:31:52.686Z,10.34
2023-01-03T02:34:27.476Z,10.35
2023-01-03T02:37:03.875Z,10.33
2023-01-03T02:39:40.818Z,10.31
2023-01-03T02:42:46.292Z,10.30
2023-01-03T02:45:39.260Z,10.27
2023-01-03T02:48:15.303Z,10.27
2023-01-03T02:50:45.967Z,10.27
2023-01-03T02:53:14.611Z,10.24
2023-01-03T02:55:43.270Z,10.19
2023-01-03T02:58:12.912Z,10.15
2023-01-03T03:00:41.430Z,10.11
2023-01-03T03:03:12.412Z,10.04
2023-01-03T03:06:00.569Z,9.98
2023-01-03T03:08:27.092Z,9.94
2023-01-03T03:11:13.029Z,9.93
2023-01-03T03:13:41.193Z,9.93
2023-01-03T03:16:11.770Z,9.94
2023-01-03T03:18:50.516Z,9.96
2023-01-03T03:21:37.164Z,9.99
2023-01-03T03:24:30.472Z,10.02
2023-01-03T03:26:58.365Z,10.02
2023-01-03T03:29:25.774Z,9.96
2023-01-03T03:31:52.807Z,9.92
2023-01-03T03:34:22.291Z,9.90
2023-01-03T03:36:48.890Z,9.90
2023-01-03T03:39:34.951Z,9.90
2023-01-03T03:42:38.117Z,9.87
2023-01-03T03:45:12.929Z,9.88
2023-01-03T03:47:49.098Z,9.84
2023-01-03T03:50:32.087Z,9.73
2023-01-03T03:53:00.274Z,9.74
2023-01-03T03:55:41.646Z,9.69
2023-01-03T03:58:11.795Z,9.55
2023-01-03T04:00:40.039Z,9.51
2023-01-03T04:03:08.090Z,9.48
2023-01-03T04:05:37.592Z,9.48
2023-01-03T04:08:04.214Z,9.49
2023-01-03T04:10:37.244Z,9.43
2023-01-03T04:13:04.555Z,9.41
2023-01-03T04:15:31.151Z,9.40
2023-01-03T04:17:57.763Z,9.45
2023-01-03T04:20:24.299Z,9.48
2023-01-03T04:22:50.789Z,9.51
2023-01-03T04:25:17.265Z,9.51
2023-01-03T04:27:43.740Z,9.52
2023-01-03T04:30:11.539Z,9.57
2023-01-03T04:32:38.451Z,9.65
2023-01-03T04:35:05.274Z,9.74
2023-01-03T04:37:31.993Z,9.82
2023-01-03T04:39:58.428Z,9.89
2023-01-03T04:42:51.068Z,9.90
2023-01-03T04:45:17.740Z,9.91
2023-01-03T04:47:44.317Z,9.91
2023-01-03T04:50:10.975Z,9.90
2023-01-03T04:52:37.433Z,9.89
2023-01-03T04:55:04.138Z,9.88
2023-01-03T04:57:30.609Z,9.89
2023-01-03T04:59:57.123Z,9.86
2023-01-03T05:02:23.652Z,9.87
2023-01-03T05:04:50.314Z,9.86
2023-01-03T05:07:16.801Z,9.88
2023-01-03T05:09:43.512Z,9.90
2023-01-03T05:12:12.125Z,9.95
2023-01-03T05:14:41.515Z,9.95
2023-01-03T05:17:08.735Z,9.94
2023-01-03T05:19:35.326Z,9.88
2023-01-03T05:22:20.364Z,9.84
2023-01-03T05:25:05.232Z,9.83
2023-01-03T05:27:31.787Z,9.85
2023-01-03T05:29:58.309Z,9.85
2023-01-03T05:32:25.122Z,9.86
2023-01-03T05:34:51.710Z,9.87
2023-01-03T05:37:18.256Z,9.88
2023-01-03T05:39:44.744Z,9.89
2023-01-03T05:42:11.228Z,9.85
2023-01-03T05:44:37.830Z,9.81
2023-01-03T05:47:05.596Z,9.79
2023-01-03T05:49:32.211Z,9.79
2023-01-03T05:51:58.724Z,9.80
2023-01-03T05:54:26.031Z,9.83
2023-01-03T05:56:52.733Z,9.77
2023-01-03T05:59:19.603Z,9.76
2023-01-03T06:01:46.212Z,9.77
2023-01-03T06:04:13.021Z,9.70
2023-01-03T06:06:39.593Z,9.69
2023-01-03T06:09:07.067Z,9.63
2023-01-03T06:11:33.708Z,9.55
2023-01-03T06:14:00.327Z,9.50
2023-01-03T06:16:45.509Z,9.48
2023-01-03T06:19:12.171Z,9.42
2023-01-03T06:21:38.812Z,9.44
2023-01-03T06:24:05.619Z,9.50
2023-01-03T06:26:32.276Z,9.55
2023-01-03T06:28:58.872Z,9.62
2023-01-03T06:31:25.468Z,9.64
2023-01-03T06:33:52.230Z,9.65
2023-01-03T06:36:20.145Z,9.61
2023-01-03T06:38:46.774Z,9.60
2023-01-03T06:41:13.862Z,9.62
2023-01-03T06:43:40.797Z,9.58
2023-01-03T06:46:26.025Z,9.59
2023-01-03T06:49:11.312Z,9.60
2023-01-03T06:51:56.589Z,9.58
2023-01-03T06:54:24.591Z,9.61
2023-01-03T06:56:51.594Z,9.63
2023-01-03T06:59:18.248Z,9.65
2023-01-03T07:01:45.102Z,9.66
2023-01-03T07:04:12.385Z,9.69
2023-01-03T07:06:39.244Z,9.74
2023-01-03T07:09:05.824Z,9.78
2023-01-03T07:11:32.470Z,9.80
2023-01-03T07:13:59.262Z,9.82
2023-01-03T07:16:30.658Z,9.82
2023-01-03T07:18:57.997Z,9.81
2023-01-03T07:21:25.368Z,9.79
2023-01-03T07:23:55.394Z,9.77
2023-01-03T07:26:24.213Z,9.76
2023-01-03T07:28:51.579Z,9.71
2023-01-03T07:31:18.233Z,9.68
2023-01-03T07:33:45.427Z,9.65
2023-01-03T07:36:12.957Z,9.67
2023-01-03T07:38:40.383Z,9.67
2023-01-03T07:41:09.858Z,9.67
2023-01-03T07:43:37.190Z,9.69
2023-01-03T07:46:09.845Z,9.73
2023-01-03T07:48:36.637Z,9.76
2023-01-03T07:51:04.459Z,9.77
2023-01-03T07:53:31.108Z,9.80
2023-01-03T07:56:13.413Z,9.79
2023-01-03T07:58:41.450Z,9.80
2023-01-03T08:01:12.488Z,9.80
2023-01-03T08:03:39.683Z,9.81
2023-01-03T08:06:10.715Z,9.68
2023-01-03T08:08:38.057Z,9.58
2023-01-03T08:11:23.308Z,9.49
2023-01-03T08:13:50.205Z,9.45
2023-01-03T08:16:17.734Z,9.36
2023-01-03T08:18:44.696Z,9.23
2023-01-03T08:21:12.633Z,9.11
2023-01-03T08:23:39.521Z,9.01
2023-01-03T08:26:07.595Z,9.05
2023-01-03T08:28:34.727Z,8.98
2023-01-03T08:31:03.812Z,8.88
2023-01-03T08:33:34.504Z,8.72
2023-01-03T08:36:03.396Z,8.62
2023-01-03T08:38:35.631Z,8.63
2023-01-03T08:41:03.026Z,8.65
2023-01-03T08:43:32.410Z,8.59
2023-01-03T08:45:59.062Z,8.60
2023-01-03T08:48:25.836Z,8.63
2023-01-03T08:50:52.457Z,8.65
2023-01-03T08:53:19.000Z,8.80
2023-01-03T08:55:45.715Z,8.97
2023-01-03T08:58:12.326Z,9.13
2023-01-03T09:00:39.791Z,9.13
2023-01-03T09:03:06.700Z,9.24
2023-01-03T09:05:33.398Z,9.46
2023-01-03T09:08:00.063Z,9.70
2023-01-03T09:10:26.947Z,10.00
2023-01-03T09:12:53.530Z,10.29
2023-01-03T09:15:20.161Z,10.44
2023-01-03T09:17:48.420Z,10.73
2023-01-03T09:20:16.223Z,11.05
2023-01-03T09:22:42.780Z,11.24
2023-01-03T09:25:10.184Z,11.34
2023-01-03T09:27:36.734Z,11.34
2023-01-03T09:30:03.952Z,11.25
2023-01-03T09:32:30.463Z,11.03
2023-01-03T09:34:58.856Z,10.71
2023-01-03T09:37:25.644Z,10.52
2023-01-03T09:39:52.429Z,10.33
2023-01-03T09:42:39.886Z,10.20
2023-01-03T09:45:08.233Z,10.11
2023-01-03T09:47:36.964Z,10.03
2023-01-03T09:50:38.899Z,9.99
2023-01-03T09:53:09.964Z,10.00
2023-01-03T09:56:06.294Z,9.85
2023-01-03T09:58:51.408Z,9.81
2023-01-03T10:01:52.455Z,9.76
2023-01-03T10:04:24.865Z,9.70
2023-01-03T10:07:02.456Z,9.68
2023-01-03T10:09:48.048Z,9.72
2023-01-03T10:12:35.209Z,9.77
2023-01-03T10:15:02.034Z,9.78
2023-01-03T10:17:34.804Z,9.87
2023-01-03T10:20:09.043Z,10.01
2023-01-03T10:22:36.146Z,10.12
2023-01-03T10:25:05.951Z,10.24
2023-01-03T10:27:36.331Z,10.43
2023-01-03T10:30:05.991Z,10.65
2023-01-03T10:32:49.374Z,10.80
2023-01-03T10:35:28.329Z,10.86
2023-01-03T10:37:56.075Z,10.90
2023-01-03T10:40:31.590Z,10.96
2023-01-03T10:42:58.223Z,10.96
2023-01-03T10:45:24.948Z,11.02
2023-01-03T10:48:01.385Z,11.06
2023-01-03T10:50:28.718Z,11.12
2023-01-03T10:52:59.628Z,11.15
2023-01-03T10:55:26.845Z,11.15
2023-01-03T10:57:53.474Z,11.21
2023-01-03T11:00:23.133Z,11.29
2023-01-03T11:02:50.532Z,11.34
2023-01-03T11:05:18.229Z,11.36
2023-01-03T11:07:45.563Z,11.38
2023-01-03T11:10:18.845Z,11.48
2023-01-03T11:12:48.756Z,11.49
2023-01-03T11:15:16.995Z,11.51
2023-01-03T11:17:54.171Z,11.57
2023-01-03T11:20:31.764Z,11.60
2023-01-03T11:23:08.137Z,11.60
2023-01-03T11:25:34.652Z,11.62
2023-01-03T11:28:20.176Z,11.65
2023-01-03T11:30:57.592Z,11.60
2023-01-03T11:33:39.536Z,11.64
2023-01-03T11:36:25.046Z,11.73
2023-01-03T11:38:55.463Z,11.82
2023-01-03T11:41:38.566Z,11.90
2023-01-03T11:44:20.546Z,12.09
2023-01-03T11:46:47.136Z,12.26
2023-01-03T11:49:21.534Z,12.49
2023-01-03T11:52:06.836Z,13.07
2023-01-03T11:54:36.302Z,13.62
2023-01-03T11:57:09.079Z,13.77
2023-01-03T11:59:35.634Z,13.86
2023-01-03T12:02:22.252Z,13.96
2023-01-03T12:05:06.066Z,14.69
2023-01-03T12:07:51.937Z,16.39
2023-01-03T12:10:28.298Z,16.14
2023-01-03T12:13:13.767Z,15.63
2023-01-03T12:15:47.954Z,15.83
2023-01-03T12:18:29.945Z,16.26
2023-01-03T12:20:59.870Z,15.94
2023-01-03T12:23:37.564Z,15.50
2023-01-03T12:26:06.567Z,15.21
2023-01-03T12:28:40.918Z,15.06
2023-01-03T12:31:18.190Z,15.69
2023-01-03T12:33:49.091Z,18.43
2023-01-03T12:36:38.916Z,20.10
2023-01-03T12:39:32.648Z,22.22
2023-01-03T12:42:03.488Z,23.73
2023-01-03T12:44:36.576Z,23.56
2023-01-03T12:47:03.673Z,21.27
2023-01-03T12:49:34.889Z,19.81
2023-01-03T12:52:01.476Z,20.58
2023-01-03T12:54:27.990Z,20.81
2023-01-03T12:57:17.626Z,20.95
2023-01-03T12:59:44.720Z,20.63
2023-01-03T13:02:29.835Z,20.04
2023-01-03T13:05:04.205Z,18.66
2023-01-03T13:07:32.092Z,17.11
2023-01-03T13:10:02.072Z,16.04
2023-01-03T13:12:30.986Z,15.63
2023-01-03T13:15:05.895Z,15.54
2023-01-03T13:17:41.846Z,15.32
2023-01-03T13:20:14.421Z,15.08
2023-01-03T13:22:46.569Z,14.62
2023-01-03T13:25:31.732Z,14.37
2023-01-03T13:28:05.666Z,14.25
2023-01-03T13:30:36.613Z,14.58
2023-01-03T13:33:03.039Z,14.57
2023-01-03T13:35:33.959Z,14.67
2023-01-03T13:38:11.360Z,14.69
2023-01-03T13:41:15.975Z,14.73
2023-01-03T13:43:36.143Z,14.73
2023-01-03T13:46:25.924Z,14.69
2023-01-03T13:49:03.212Z,14.65
2023-01-03T13:51:34.631Z,14.64
2023-01-03T13:54:25.049Z,14.57
2023-01-03T13:56:54.733Z,14.48
2023-01-03T13:59:42.503Z,14.41
2023-01-03T14:02:12.135Z,14.10
2023-01-03T14:04:44.991Z,13.98
2023-01-03T14:07:30.458Z,14.04
2023-01-03T14:10:12.054Z,14.07
2023-01-03T14:12:38.755Z,14.07
2023-01-03T14:15:23.114Z,13.89
2023-01-03T14:17:55.322Z,13.68
2023-01-03T14:20:23.782Z,13.53
2023-01-03T14:22:51.683Z,13.45
2023-01-03T14:25:31.802Z,13.32
2023-01-03T14:28:00.675Z,13.13
2023-01-03T14:30:31.770Z,12.98
2023-01-03T14:32:58.844Z,12.89
2023-01-03T14:35:35.761Z,12.84
2023-01-03T14:38:06.823Z,12.70
2023-01-03T14:40:34.320Z,12.52
2023-01-03T14:43:04.864Z,12.48
2023-01-03T14:45:31.491Z,12.50
2023-01-03T14:47:58.252Z,12.63
2023-01-03T14:50:27.143Z,12.64
2023-01-03T14:52:58.143Z,12.72
2023-01-03T14:55:29.491Z,12.81
2023-01-03T14:57:57.775Z,12.91
2023-01-03T15:00:32.907Z,12.96
2023-01-03T15:03:01.166Z,13.01
2023-01-03T15:05:33.104Z,13.03
2023-01-03T15:08:10.272Z,13.01
2023-01-03T15:10:59.640Z,12.98
2023-01-03T15:13:29.973Z,13.01
2023-01-03T15:15:58.215Z,13.03
2023-01-03T15:18:26.039Z,12.95
2023-01-03T15:20:53.795Z,12.90
2023-01-03T15:23:28.931Z,12.94
2023-01-03T15:25:55.555Z,12.94
2023-01-03T15:28:35.528Z,12.95
2023-01-03T15:31:14.511Z,13.02
2023-01-03T15:33:41.442Z,13.00
2023-01-03T15:36:18.182Z,12.91
2023-01-03T15:38:46.409Z,12.68
2023-01-03T15:41:40.267Z,12.53
2023-01-03T15:44:07.236Z,12.45
2023-01-03T15:46:34.271Z,12.55
2023-01-03T15:49:02.036Z,12.62
2023-01-03T15:51:28.639Z,12.74
2023-01-03T15:53:55.158Z,12.83
2023-01-03T15:56:23.787Z,12.88
2023-01-03T15:58:52.019Z,12.91
2023-01-03T16:01:19.130Z,12.97
2023-01-03T16:03:46.554Z,13.00
2023-01-03T16:06:13.263Z,13.04
2023-01-03T16:08:40.313Z,13.10
2023-01-03T16:11:15.543Z,13.15
2023-01-03T16:13:46.208Z,13.19
2023-01-03T16:16:15.797Z,13.19
2023-01-03T16:18:44.884Z,13.17
2023-01-03T16:21:12.881Z,13.12
2023-01-03T16:23:39.747Z,13.07
2023-01-03T16:26:06.294Z,13.06
2023-01-03T16:28:32.840Z,13.03
2023-01-03T16:31:01.289Z,12.91
2023-01-03T16:33:34.757Z,12.84
2023-01-03T16:36:02.153Z,12.88
2023-01-03T16:38:29.644Z,12.88
2023-01-03T16:40:56.617Z,12.75
2023-01-03T16:43:26.810Z,12.65
2023-01-03T16:45:54.768Z,12.56
2023-01-03T16:48:23.330Z,12.44
2023-01-03T16:50:51.959Z,12.33
2023-01-03T16:53:25.019Z,12.28
2023-01-03T16:55:54.637Z,12.23
2023-01-03T16:58:21.230Z,12.23
2023-01-03T17:00:47.942Z,12.20
2023-01-03T17:03:14.673Z,12.16
2023-01-03T17:05:41.639Z,12.18
2023-01-03T17:08:16.198Z,12.14
2023-01-03T17:10:46.159Z,12.03
2023-01-03T17:13:27.400Z,11.94
2023-01-03T17:15:54.739Z,11.77
2023-01-03T17:18:23.116Z,11.72
2023-01-03T17:20:52.835Z,11.63
2023-01-03T17:23:19.669Z,11.56
2023-01-03T17:25:46.346Z,11.47
2023-01-03T17:28:12.963Z,11.44
2023-01-03T17:30:39.533Z,11.41
2023-01-03T17:33:06.172Z,11.37
2023-01-03T17:35:33.422Z,11.31
2023-01-03T17:38:27.464Z,11.29
2023-01-03T17:40:48.279Z,11.32
2023-01-03T17:43:22.469Z,11.30
2023-01-03T17:46:08.755Z,11.25
2023-01-03T17:48:54.126Z,11.27
2023-01-03T17:51:21.407Z,11.28
2023-01-03T17:53:49.775Z,11.34
2023-01-03T17:56:17.442Z,11.41
2023-01-03T17:58:44.298Z,11.40
2023-01-03T18:01:13.407Z,11.31
2023-01-03T18:03:40.387Z,11.25
2023-01-03T18:06:11.816Z,11.25
2023-01-03T18:08:38.477Z,11.22
2023-01-03T18:11:07.294Z,11.27
2023-01-03T18:13:35.960Z,11.31
2023-01-03T18:16:03.365Z,11.33
2023-01-03T18:18:31.359Z,11.29
2023-01-03T18:20:58.236Z,11.22
2023-01-03T18:23:27.763Z,11.15
2023-01-03T18:25:54.812Z,11.13
2023-01-03T18:28:25.748Z,11.10
2023-01-03T18:30:52.803Z,11.05
2023-01-03T18:33:19.536Z,11.12
2023-01-03T18:35:46.164Z,11.20
2023-01-03T18:38:33.016Z,11.20
2023-01-03T18:41:04.889Z,11.14
2023-01-03T18:43:32.651Z,11.06
2023-01-03T18:45:59.430Z,11.00
2023-01-03T18:48:26.027Z,10.92
2023-01-03T18:50:58.285Z,10.80
2023-01-03T18:53:28.302Z,10.79
2023-01-03T18:55:54.917Z,10.76
2023-01-03T18:58:33.690Z,10.73
2023-01-03T19:01:00.247Z,10.68
2023-01-03T19:03:28.168Z,10.66
2023-01-03T19:05:55.493Z,10.65
2023-01-03T19:08:24.342Z,10.68
2023-01-03T19:10:51.437Z,10.62
2023-01-03T19:13:30.385Z,10.59
2023-01-03T19:15:57.207Z,10.57
2023-01-03T19:18:23.825Z,10.54
2023-01-03T19:20:50.765Z,10.53
2023-01-03T19:23:23.867Z,10.53
2023-01-03T19:25:50.870Z,10.51
2023-01-03T19:28:22.273Z,10.49
2023-01-03T19:30:49.421Z,10.47
2023-01-03T19:33:16.462Z,10.49
2023-01-03T19:35:43.617Z,10.46
2023-01-03T19:38:10.242Z,10.52
2023-01-03T19:40:38.806Z,10.49
2023-01-03T19:43:05.609Z,10.56
2023-01-03T19:45:33.627Z,10.59
2023-01-03T19:48:01.355Z,10.63
2023-01-03T19:50:32.938Z,10.56
2023-01-03T19:53:01.608Z,10.53
2023-01-03T19:55:30.522Z,10.53
2023-01-03T19:57:57.946Z,10.50
2023-01-03T20:00:28.820Z,10.50
2023-01-03T20:02:57.587Z,10.48
2023-01-03T20:05:26.557Z,10.46
2023-01-03T20:07:53.639Z,10.39
2023-01-03T20:10:22.657Z,10.38
2023-01-03T20:12:51.183Z,10.36
2023-01-03T20:15:24.703Z,10.33
2023-01-03T20:17:54.252Z,10.32
2023-01-03T20:20:22.464Z,10.30
2023-01-03T20:23:06.701Z,10.22
2023-01-03T20:25:34.744Z,10.23
2023-01-03T20:28:01.632Z,10.21
2023-01-03T20:30:29.360Z,10.24
2023-01-03T20:32:56.576Z,10.25
2023-01-03T20:38:11.685Z,10.20
2023-01-03T20:40:39.197Z,10.14
2023-01-03T20:43:05.834Z,10.12
2023-01-03T20:45:32.514Z,10.14
2023-01-03T20:47:59.848Z,10.11
2023-01-03T20:50:28.900Z,10.07
2023-01-03T20:52:59.278Z,10.03
2023-01-03T20:55:29.998Z,10.02
2023-01-03T20:58:00.122Z,10.05
2023-01-03T21:00:29.794Z,10.02
2023-01-03T21:02:56.569Z,10.03
2023-01-03T21:05:23.655Z,9.98
2023-01-03T21:08:08.793Z,9.99
2023-01-03T21:10:40.397Z,9.99
2023-01-03T21:13:07.758Z,9.99
2023-01-03T21:15:34.953Z,10.00
2023-01-03T21:18:03.781Z,10.00
2023-01-03T21:20:31.059Z,9.98
2023-01-03T21:22:57.811Z,9.98
2023-01-03T21:25:30.255Z,9.95
2023-01-03T21:27:56.866Z,9.91
2023-01-03T21:30:24.342Z,9.78
2023-01-03T21:32:51.217Z,9.75
2023-01-03T21:35:19.306Z,9.73
2023-01-03T21:37:46.480Z,9.64
2023-01-03T21:40:16.279Z,9.58
2023-01-03T21:43:04.614Z,9.52
2023-01-03T21:45:38.940Z,9.54
2023-01-03T21:48:13.285Z,9.43
2023-01-03T21:50:41.131Z,9.33
2023-01-03T21:53:09.931Z,9.27
2023-01-03T21:55:39.452Z,9.24
2023-01-03T21:58:06.546Z,9.18
2023-01-03T22:00:33.132Z,9.14
2023-01-03T22:03:18.348Z,9.06
2023-01-03T22:05:44.924Z,9.11
2023-01-03T22:08:11.863Z,9.14
2023-01-03T22:10:38.982Z,9.19
2023-01-03T22:13:07.096Z,9.20
2023-01-03T22:15:37.835Z,9.18
2023-01-03T22:18:06.082Z,9.24
2023-01-03T22:20:38.215Z,9.32
2023-01-03T22:23:06.595Z,9.25
2023-01-03T22:25:33.184Z,9.28
2023-01-03T22:27:59.653Z,9.30
2023-01-03T22:30:26.224Z,9.38
2023-01-03T22:32:55.509Z,9.43
2023-01-03T22:35:21.977Z,9.45
2023-01-03T22:37:48.515Z,9.36
2023-01-03T22:40:16.227Z,9.28
2023-01-03T22:42:42.832Z,9.23
2023-01-03T22:45:09.999Z,9.22
2023-01-03T22:47:37.080Z,9.24
2023-01-03T22:50:04.643Z,9.20
2023-01-03T22:52:31.220Z,9.17
2023-01-03T22:54:57.804Z,9.18
2023-01-03T22:57:24.459Z,9.18
2023-01-03T22:59:51.160Z,9.16
2023-01-03T23:02:17.887Z,9.08
2023-01-03T23:04:44.572Z,9.06
2023-01-03T23:07:11.304Z,9.02
2023-01-03T23:09:38.155Z,8.99
2023-01-03T23:12:23.322Z,8.97
2023-01-03T23:14:49.874Z,8.97
2023-01-03T23:17:51.964Z,8.95
2023-01-03T23:20:18.560Z,8.81
2023-01-03T23:22:45.173Z,8.83
2023-01-03T23:25:11.943Z,8.81
2023-01-03T23:27:38.478Z,8.77
2023-01-03T23:30:05.214Z,8.78
2023-01-03T23:32:32.206Z,8.77
2023-01-03T23:34:58.796Z,8.70
2023-01-03T23:37:25.345Z,8.66
2023-01-03T23:39:52.111Z,8.57
2023-01-03T23:42:18.705Z,8.47
2023-01-03T23:44:45.243Z,8.41
2023-01-03T23:47:11.787Z,8.32
2023-01-03T23:49:39.220Z,8.49
2023-01-03T23:52:05.933Z,8.54
2023-01-03T23:54:35.290Z,8.67
2023-01-03T23:57:01.958Z,8.77
2023-01-03T23:59:28.492Z,8.77
